createdAt,value
2023-10-24T00:00:09.135Z,20.21
2023-10-24T00:02:44.288Z,20.20
2023-10-24T00:05:12.215Z,20.21
2023-10-24T00:07:40.342Z,20.20
2023-10-24T00:10:09.127Z,20.20
2023-10-24T00:12:37.293Z,20.21
2023-10-24T00:15:05.840Z,20.21
2023-10-24T00:17:33.842Z,20.20
2023-10-24T00:20:03.425Z,20.18
2023-10-24T00:22:31.658Z,20.18
2023-10-24T00:24:59.775Z,20.19
2023-10-24T00:27:27.824Z,20.19
2023-10-24T00:29:55.887Z,20.20
2023-10-24T00:32:24.176Z,20.21
2023-10-24T00:34:52.350Z,20.20
2023-10-24T00:37:21.729Z,20.20
2023-10-24T00:39:49.874Z,20.17
2023-10-24T00:42:17.985Z,20.19
2023-10-24T00:44:46.093Z,20.21
2023-10-24T00:47:13.994Z,20.19
2023-10-24T00:49:42.750Z,20.21
2023-10-24T00:52:10.972Z,20.20
2023-10-24T00:54:40.556Z,20.18
2023-10-24T00:57:10.145Z,20.19
2023-10-24T00:59:38.201Z,20.14
2023-10-24T01:02:06.902Z,20.18
2023-10-24T01:04:35.431Z,20.17
2023-10-24T01:07:04.448Z,20.17
2023-10-24T01:09:32.349Z,20.18
2023-10-24T01:12:02.427Z,20.17
2023-10-24T01:14:30.714Z,20.20
2023-10-24T01:16:58.574Z,20.20
2023-10-24T01:19:28.258Z,20.19
2023-10-24T01:21:57.830Z,20.19
2023-10-24T01:24:28.741Z,20.20
2023-10-24T01:26:58.409Z,20.20
2023-10-24T01:29:26.243Z,20.17
2023-10-24T01:31:54.344Z,20.18
2023-10-24T01:34:22.492Z,20.17
2023-10-24T01:36:50.871Z,20.18
2023-10-24T01:39:20.191Z,20.20
2023-10-24T01:41:48.256Z,20.19
2023-10-24T01:44:16.462Z,20.20
2023-10-24T01:46:45.580Z,20.20
2023-10-24T01:49:13.869Z,20.19
2023-10-24T01:51:41.965Z,20.18
2023-10-24T01:54:09.928Z,20.19
2023-10-24T01:56:39.300Z,20.19
2023-10-24T01:59:08.495Z,20.20
2023-10-24T02:01:36.725Z,20.21
2023-10-24T02:04:05.001Z,20.21
2023-10-24T02:06:33.339Z,20.20
2023-10-24T02:09:01.387Z,20.21
2023-10-24T02:11:29.707Z,20.21
2023-10-24T02:13:59.091Z,20.18
2023-10-24T02:16:27.274Z,20.21
2023-10-24T02:18:55.414Z,20.19
2023-10-24T02:21:23.319Z,20.19
2023-10-24T02:23:52.403Z,20.19
2023-10-24T02:26:20.432Z,20.20
2023-10-24T02:28:48.471Z,20.20
2023-10-24T02:31:17.909Z,20.18
2023-10-24T02:33:48.952Z,20.18
2023-10-24T02:36:17.087Z,20.19
2023-10-24T02:38:45.183Z,20.18
2023-10-24T02:41:13.327Z,20.19
2023-10-24T02:43:41.767Z,20.19
2023-10-24T02:46:10.471Z,20.19
2023-10-24T02:48:39.938Z,20.19
2023-10-24T02:51:07.854Z,20.18
2023-10-24T02:53:36.019Z,20.18
2023-10-24T02:56:04.424Z,20.18
2023-10-24T02:58:33.373Z,20.18
2023-10-24T03:01:04.944Z,20.20
2023-10-24T03:03:33.391Z,20.19
2023-10-24T03:06:02.721Z,20.18
2023-10-24T03:08:30.745Z,20.19
2023-10-24T03:10:59.361Z,20.17
2023-10-24T03:13:27.464Z,20.18
2023-10-24T03:15:55.639Z,20.19
2023-10-24T03:18:24.568Z,20.19
2023-10-24T03:20:52.619Z,20.20
2023-10-24T03:23:23.429Z,20.19
2023-10-24T03:25:51.480Z,20.21
2023-10-24T03:28:19.618Z,20.17
2023-10-24T03:30:49.571Z,20.18
2023-10-24T03:33:17.654Z,20.17
2023-10-24T03:35:45.708Z,20.17
2023-10-24T03:38:16.590Z,20.14
2023-10-24T03:40:45.912Z,20.17
2023-10-24T03:43:13.948Z,20.15
2023-10-24T03:45:42.174Z,20.16
2023-10-24T03:48:10.292Z,20.16
2023-10-24T03:50:39.659Z,20.16
2023-10-24T03:53:08.368Z,20.19
2023-10-24T03:55:36.571Z,20.18
2023-10-24T03:58:06.517Z,20.17
2023-10-24T04:00:34.732Z,20.16
2023-10-24T04:03:02.784Z,20.17
2023-10-24T04:05:33.565Z,20.16
2023-10-24T04:08:02.708Z,20.17
2023-10-24T04:10:30.810Z,20.15
2023-10-24T04:12:58.875Z,20.16
2023-10-24T04:15:29.530Z,20.16
2023-10-24T04:17:57.523Z,20.18
2023-10-24T04:20:25.524Z,20.17
2023-10-24T04:22:54.024Z,20.17
2023-10-24T04:25:22.021Z,20.14
2023-10-24T04:27:50.086Z,20.16
2023-10-24T04:30:18.127Z,20.17
2023-10-24T04:32:48.548Z,20.16
2023-10-24T04:35:16.485Z,20.15
2023-10-24T04:37:47.577Z,20.13
2023-10-24T04:40:15.856Z,20.14
2023-10-24T04:42:43.923Z,20.15
2023-10-24T04:45:11.939Z,20.13
2023-10-24T04:47:39.766Z,20.14
2023-10-24T04:50:09.823Z,20.16
2023-10-24T04:52:37.787Z,20.14
2023-10-24T04:55:06.241Z,20.15
2023-10-24T04:57:34.202Z,20.14
2023-10-24T05:00:01.987Z,19.47
2023-10-24T05:02:29.890Z,20.15
2023-10-24T05:04:57.881Z,20.14
2023-10-24T05:07:27.270Z,20.11
2023-10-24T05:09:55.323Z,20.12
2023-10-24T05:12:23.386Z,20.13
2023-10-24T05:14:51.448Z,20.13
2023-10-24T05:17:19.290Z,20.13
2023-10-24T05:19:47.535Z,20.14
2023-10-24T05:22:16.179Z,20.13
2023-10-24T05:24:45.582Z,20.12
2023-10-24T05:27:13.561Z,20.13
2023-10-24T05:29:43.902Z,20.13
2023-10-24T05:32:12.097Z,20.11
2023-10-24T05:34:40.833Z,20.13
2023-10-24T05:37:09.278Z,20.12
2023-10-24T05:39:37.414Z,20.12
2023-10-24T05:42:07.052Z,20.12
2023-10-24T05:44:34.917Z,20.11
2023-10-24T05:47:03.169Z,20.13
2023-10-24T05:49:31.475Z,20.11
2023-10-24T05:51:59.552Z,20.10
2023-10-24T05:54:27.469Z,20.11
2023-10-24T05:56:55.472Z,20.10
2023-10-24T05:59:25.039Z,20.12
2023-10-24T06:01:53.154Z,20.10
2023-10-24T06:04:21.353Z,20.12
2023-10-24T06:06:49.517Z,20.12
2023-10-24T06:09:17.594Z,20.11
2023-10-24T06:11:45.547Z,20.13
2023-10-24T06:14:13.596Z,20.12
2023-10-24T06:16:43.318Z,20.12
2023-10-24T06:19:11.231Z,20.12
2023-10-24T06:21:39.542Z,20.11
2023-10-24T06:24:07.728Z,20.11
2023-10-24T06:26:35.996Z,20.10
2023-10-24T06:29:04.298Z,20.12
2023-10-24T06:31:32.456Z,20.11
2023-10-24T06:34:03.850Z,20.09
2023-10-24T06:36:31.920Z,20.11
2023-10-24T06:38:59.914Z,20.10
2023-10-24T06:41:27.917Z,20.13
2023-10-24T06:43:56.038Z,20.15
2023-10-24T06:46:25.599Z,20.17
2023-10-24T06:48:54.596Z,20.18
2023-10-24T06:51:25.280Z,20.21
2023-10-24T06:53:53.427Z,20.20
2023-10-24T06:56:22.317Z,20.18
2023-10-24T06:58:50.653Z,20.17
2023-10-24T07:01:19.061Z,20.15
2023-10-24T07:03:48.924Z,20.16
2023-10-24T07:06:17.048Z,20.17
2023-10-24T07:08:47.998Z,20.16
2023-10-24T07:11:15.903Z,20.12
2023-10-24T07:13:43.810Z,20.15
2023-10-24T07:16:18.450Z,20.17
2023-10-24T07:18:46.516Z,20.18
2023-10-24T07:21:16.709Z,20.19
2023-10-24T07:23:46.091Z,20.20
2023-10-24T07:26:14.117Z,20.22
2023-10-24T07:28:42.171Z,20.24
2023-10-24T07:31:10.209Z,20.27
2023-10-24T07:33:38.321Z,20.27
2023-10-24T07:36:06.921Z,20.26
2023-10-24T07:38:35.043Z,20.25
2023-10-24T07:41:05.128Z,20.22
2023-10-24T07:43:33.358Z,20.22
2023-10-24T07:46:01.351Z,20.23
2023-10-24T07:48:29.584Z,20.23
2023-10-24T07:50:58.492Z,20.27
2023-10-24T07:53:27.199Z,20.26
2023-10-24T07:55:55.461Z,20.30
2023-10-24T07:58:24.909Z,20.27
2023-10-24T08:00:53.096Z,20.25
2023-10-24T08:03:22.288Z,20.24
2023-10-24T08:05:50.410Z,20.24
2023-10-24T08:08:18.297Z,20.23
2023-10-24T08:10:46.305Z,20.22
2023-10-24T08:13:14.284Z,20.23
2023-10-24T08:15:45.432Z,20.24
2023-10-24T08:18:13.386Z,20.24
2023-10-24T08:20:41.433Z,20.25
2023-10-24T08:23:09.589Z,20.27
2023-10-24T08:25:37.641Z,20.27
2023-10-24T08:28:05.874Z,20.28
2023-10-24T08:30:33.824Z,20.29
2023-10-24T08:33:03.287Z,20.28
2023-10-24T08:35:31.311Z,20.29
2023-10-24T08:37:59.427Z,20.30
2023-10-24T08:40:28.866Z,20.26
2023-10-24T08:42:57.347Z,20.35
2023-10-24T08:45:25.950Z,20.38
2023-10-24T08:47:55.187Z,20.39
2023-10-24T08:50:24.855Z,20.43
2023-10-24T08:52:53.641Z,20.45
2023-10-24T08:55:21.743Z,20.50
2023-10-24T08:57:50.551Z,20.50
2023-10-24T09:00:20.938Z,20.52
2023-10-24T09:02:49.479Z,20.55
2023-10-24T09:05:17.911Z,19.92
2023-10-24T09:07:47.325Z,20.61
2023-10-24T09:10:15.265Z,20.61
2023-10-24T09:12:45.547Z,20.63
2023-10-24T09:15:13.597Z,20.64
2023-10-24T09:17:42.213Z,20.67
2023-10-24T09:20:10.861Z,20.66
2023-10-24T09:22:42.855Z,20.64
2023-10-24T09:25:12.334Z,20.69
2023-10-24T09:27:40.688Z,20.71
2023-10-24T09:30:13.540Z,20.71
2023-10-24T09:32:42.634Z,20.71
2023-10-24T09:35:11.544Z,20.71
2023-10-24T09:37:40.830Z,20.72
2023-10-24T09:40:09.533Z,20.64
2023-10-24T09:42:40.768Z,20.72
2023-10-24T09:45:09.998Z,20.71
2023-10-24T09:47:43.427Z,20.65
2023-10-24T09:50:13.285Z,20.61
2023-10-24T09:52:43.222Z,20.61
2023-10-24T09:55:11.625Z,20.61
2023-10-24T09:57:42.296Z,20.67
2023-10-24T10:00:15.581Z,20.62
2023-10-24T10:02:46.223Z,20.57
2023-10-24T10:05:16.612Z,20.64
2023-10-24T10:07:49.074Z,20.61
2023-10-24T10:10:18.347Z,20.65
2023-10-24T10:12:48.462Z,20.67
2023-10-24T10:15:23.811Z,20.68
2023-10-24T10:17:55.447Z,20.68
2023-10-24T10:20:47.486Z,20.68
2023-10-24T10:23:22.536Z,20.65
2023-10-24T10:25:56.342Z,20.64
2023-10-24T10:28:32.214Z,20.60
2023-10-24T10:32:38.235Z,20.57
2023-10-24T10:33:55.939Z,20.57
2023-10-24T10:36:26.712Z,20.55
2023-10-24T10:39:00.576Z,20.57
2023-10-24T10:41:41.876Z,20.55
2023-10-24T10:44:31.199Z,20.57
2023-10-24T10:47:06.238Z,20.60
2023-10-24T10:49:46.579Z,20.61
2023-10-24T10:52:26.141Z,20.65
2023-10-24T10:55:01.012Z,20.65
2023-10-24T10:57:34.109Z,20.67
2023-10-24T11:00:10.940Z,20.70
2023-10-24T11:02:59.194Z,20.76
2023-10-24T11:05:48.066Z,20.77
2023-10-24T11:08:21.321Z,20.77
2023-10-24T11:10:56.258Z,20.77
2023-10-24T11:13:35.909Z,20.79
2023-10-24T11:16:05.385Z,20.83
2023-10-24T11:18:38.463Z,20.83
2023-10-24T11:21:07.329Z,20.85
2023-10-24T11:23:36.050Z,20.88
2023-10-24T11:26:04.827Z,20.89
2023-10-24T11:28:33.483Z,20.89
2023-10-24T11:31:21.629Z,20.87
2023-10-24T11:33:51.347Z,20.83
2023-10-24T11:36:19.392Z,20.82
2023-10-24T11:38:49.279Z,20.81
2023-10-24T11:41:17.216Z,20.78
2023-10-24T11:43:46.640Z,20.77
2023-10-24T11:46:14.821Z,20.73
2023-10-24T11:48:42.888Z,20.75
2023-10-24T11:51:12.297Z,20.74
2023-10-24T11:53:39.343Z,20.74
2023-10-24T11:56:09.912Z,20.75
2023-10-24T11:58:38.383Z,20.72
2023-10-24T12:01:08.138Z,20.69
2023-10-24T12:03:43.717Z,20.65
2023-10-24T12:06:13.162Z,20.62
2023-10-24T12:08:41.137Z,20.58
2023-10-24T12:11:12.244Z,20.57
2023-10-24T12:13:41.341Z,20.56
2023-10-24T12:16:09.910Z,20.51
2023-10-24T12:18:40.173Z,20.50
2023-10-24T12:21:11.154Z,20.47
2023-10-24T12:23:40.911Z,20.48
2023-10-24T12:26:09.111Z,20.49
2023-10-24T12:28:44.392Z,20.48
2023-10-24T12:31:13.745Z,20.47
2023-10-24T12:33:41.939Z,20.46
2023-10-24T12:36:09.891Z,20.47
2023-10-24T12:38:39.118Z,20.49
2023-10-24T12:41:08.666Z,20.49
2023-10-24T12:43:36.684Z,20.51
2023-10-24T12:46:05.476Z,20.50
2023-10-24T12:48:37.744Z,20.48
2023-10-24T12:51:17.337Z,20.47
2023-10-24T12:53:45.252Z,20.48
2023-10-24T12:56:14.776Z,20.50
2023-10-24T12:58:42.875Z,20.50
2023-10-24T13:01:12.097Z,20.55
2023-10-24T13:03:40.161Z,20.53
2023-10-24T13:06:08.852Z,20.55
2023-10-24T13:08:36.815Z,20.56
2023-10-24T13:11:05.630Z,20.56
2023-10-24T13:13:35.138Z,20.55
2023-10-24T13:16:03.052Z,20.56
2023-10-24T13:18:31.030Z,20.56
2023-10-24T13:20:59.066Z,20.54
2023-10-24T13:23:27.200Z,20.56
2023-10-24T13:25:55.343Z,20.56
2023-10-24T13:28:24.016Z,20.56
2023-10-24T13:31:07.098Z,20.56
2023-10-24T13:34:04.784Z,20.56
2023-10-24T13:36:29.552Z,20.52
2023-10-24T13:38:57.674Z,20.53
2023-10-24T13:41:28.622Z,20.51
2023-10-24T13:43:59.081Z,20.51
2023-10-24T13:46:29.618Z,20.50
2023-10-24T13:48:58.844Z,20.48
2023-10-24T13:51:27.097Z,20.49
2023-10-24T13:53:55.717Z,20.47
2023-10-24T13:56:23.679Z,20.47
2023-10-24T13:58:51.747Z,20.47
2023-10-24T14:01:19.885Z,20.46
2023-10-24T14:03:49.533Z,20.47
2023-10-24T14:06:17.659Z,20.44
2023-10-24T14:08:45.718Z,20.44
2023-10-24T14:11:13.936Z,20.43
2023-10-24T14:13:41.989Z,20.43
2023-10-24T14:16:10.109Z,20.42
2023-10-24T14:18:38.079Z,20.41
2023-10-24T14:21:07.736Z,20.43
2023-10-24T14:23:35.741Z,20.41
2023-10-24T14:26:03.924Z,20.41
2023-10-24T14:28:32.735Z,20.42
2023-10-24T14:31:01.003Z,20.41
2023-10-24T14:33:29.038Z,20.39
2023-10-24T14:35:57.089Z,20.40
2023-10-24T14:38:26.582Z,20.40
2023-10-24T14:40:54.770Z,20.39
2023-10-24T14:43:22.998Z,20.38
2023-10-24T14:45:51.577Z,20.39
2023-10-24T14:48:19.545Z,20.38
2023-10-24T14:50:47.533Z,20.39
2023-10-24T14:53:17.100Z,20.38
2023-10-24T14:55:46.476Z,20.37
2023-10-24T14:58:14.608Z,20.36
2023-10-24T15:00:43.551Z,20.36
2023-10-24T15:03:11.713Z,20.36
2023-10-24T15:05:39.770Z,20.36
2023-10-24T15:08:11.180Z,20.36
2023-10-24T15:10:39.331Z,20.37
2023-10-24T15:13:08.680Z,20.35
2023-10-24T15:15:36.700Z,20.35
2023-10-24T15:18:05.719Z,20.33
2023-10-24T15:20:33.775Z,20.33
2023-10-24T15:23:01.793Z,20.34
2023-10-24T15:25:29.753Z,20.35
2023-10-24T15:27:57.762Z,20.34
2023-10-24T15:30:27.806Z,20.34
2023-10-24T15:32:55.837Z,20.33
2023-10-24T15:35:26.258Z,20.33
2023-10-24T15:37:54.406Z,20.32
2023-10-24T15:40:22.424Z,20.33
2023-10-24T15:42:50.475Z,20.30
2023-10-24T15:45:18.596Z,20.33
2023-10-24T15:47:49.560Z,20.32
2023-10-24T15:50:17.815Z,20.32
2023-10-24T15:52:46.327Z,20.33
2023-10-24T15:55:26.792Z,20.32
2023-10-24T15:57:59.580Z,20.32
2023-10-24T16:00:29.748Z,20.31
2023-10-24T16:02:59.405Z,20.33
2023-10-24T16:05:27.526Z,20.32
2023-10-24T16:07:55.435Z,20.33
2023-10-24T16:10:23.494Z,20.32
2023-10-24T16:12:51.571Z,20.31
2023-10-24T16:15:19.544Z,20.31
2023-10-24T16:17:47.573Z,20.31
2023-10-24T16:20:17.058Z,20.32
2023-10-24T16:22:45.065Z,20.33
2023-10-24T16:25:13.148Z,20.32
2023-10-24T16:27:41.120Z,20.33
2023-10-24T16:30:09.658Z,20.32
2023-10-24T16:32:39.413Z,20.30
2023-10-24T16:35:08.145Z,20.31
2023-10-24T16:37:37.561Z,20.31
2023-10-24T16:40:06.225Z,20.31
2023-10-24T16:42:34.243Z,20.28
2023-10-24T16:45:02.678Z,20.31
2023-10-24T16:47:32.699Z,20.32
2023-10-24T16:50:00.911Z,20.32
2023-10-24T16:52:29.202Z,20.31
2023-10-24T16:54:58.550Z,20.32
2023-10-24T16:57:26.638Z,20.30
2023-10-24T16:59:54.702Z,20.29
2023-10-24T17:02:22.739Z,20.31
2023-10-24T17:04:50.798Z,20.30
2023-10-24T17:07:18.848Z,20.31
2023-10-24T17:09:46.975Z,20.30
2023-10-24T17:12:16.585Z,20.31
2023-10-24T17:14:45.824Z,20.31
2023-10-24T17:17:19.019Z,20.30
2023-10-24T17:19:47.040Z,20.31
2023-10-24T17:22:15.076Z,20.30
2023-10-24T17:24:43.293Z,20.30
2023-10-24T17:27:11.385Z,20.30
2023-10-24T17:29:43.313Z,20.30
2023-10-24T17:32:11.654Z,20.29
2023-10-24T17:34:40.745Z,20.29
2023-10-24T17:37:09.029Z,20.30
2023-10-24T17:39:38.189Z,20.30
2023-10-24T17:42:09.298Z,20.29
2023-10-24T17:44:37.600Z,20.30
2023-10-24T17:47:07.614Z,19.59
2023-10-24T17:49:35.718Z,20.29
2023-10-24T17:52:03.864Z,20.31
2023-10-24T17:54:31.910Z,20.30
2023-10-24T17:56:59.702Z,20.30
2023-10-24T17:59:29.732Z,20.31
2023-10-24T18:01:57.821Z,20.30
2023-10-24T18:04:27.381Z,20.29
2023-10-24T18:06:58.530Z,20.30
2023-10-24T18:09:29.566Z,20.31
2023-10-24T18:11:57.678Z,20.31
2023-10-24T18:14:25.591Z,20.31
2023-10-24T18:16:53.478Z,20.28
2023-10-24T18:19:22.794Z,20.28
2023-10-24T18:21:52.337Z,20.30
2023-10-24T18:24:20.303Z,20.31
2023-10-24T18:26:49.222Z,20.28
2023-10-24T18:29:17.273Z,20.29
2023-10-24T18:31:45.389Z,20.29
2023-10-24T18:34:13.462Z,20.28
2023-10-24T18:36:41.533Z,20.28
2023-10-24T18:39:11.079Z,20.29
2023-10-24T18:41:39.120Z,20.26
2023-10-24T18:44:09.234Z,20.29
2023-10-24T18:46:38.556Z,20.27
2023-10-24T18:49:06.796Z,20.26
2023-10-24T18:51:34.770Z,20.28
2023-10-24T18:54:02.815Z,20.26
2023-10-24T18:56:34.476Z,20.27
2023-10-24T18:59:05.408Z,20.26
2023-10-24T19:01:33.855Z,20.28
2023-10-24T19:04:06.765Z,20.30
2023-10-24T19:06:35.068Z,20.28
2023-10-24T19:09:03.603Z,20.28
2023-10-24T19:11:33.594Z,20.30
2023-10-24T19:14:02.462Z,20.29
2023-10-24T19:16:32.349Z,20.25
2023-10-24T19:19:00.470Z,20.27
2023-10-24T19:21:28.808Z,20.28
2023-10-24T19:23:56.992Z,20.27
2023-10-24T19:26:25.007Z,20.28
2023-10-24T19:28:54.539Z,20.30
2023-10-24T19:31:22.858Z,20.27
2023-10-24T19:33:51.224Z,20.28
2023-10-24T19:36:20.409Z,20.29
2023-10-24T19:38:48.477Z,20.30
2023-10-24T19:41:16.842Z,20.30
2023-10-24T19:43:45.180Z,20.29
2023-10-24T19:46:19.335Z,20.28
2023-10-24T19:48:47.701Z,20.30
2023-10-24T19:51:16.046Z,20.29
2023-10-24T19:53:44.390Z,20.28
2023-10-24T19:56:12.739Z,20.27
2023-10-24T19:58:41.488Z,20.27
2023-10-24T20:01:11.945Z,20.32
2023-10-24T20:03:42.202Z,20.30
2023-10-24T20:06:11.499Z,20.29
2023-10-24T20:08:44.798Z,20.29
2023-10-24T20:12:32.455Z,20.30
2023-10-24T20:14:02.433Z,20.28
2023-10-24T20:16:32.316Z,20.31
2023-10-24T20:19:02.002Z,20.30
2023-10-24T20:21:30.486Z,20.31
2023-10-24T20:23:58.628Z,20.29
2023-10-24T20:26:26.789Z,20.29
2023-10-24T20:28:54.964Z,20.30
2023-10-24T20:31:23.247Z,20.29
2023-10-24T20:33:51.357Z,20.30
2023-10-24T20:36:20.727Z,20.29
2023-10-24T20:38:48.654Z,20.30
2023-10-24T20:41:16.722Z,20.30
2023-10-24T20:43:44.689Z,20.29
2023-10-24T20:46:12.733Z,20.30
2023-10-24T20:48:40.698Z,20.30
2023-10-24T20:51:08.695Z,20.31
2023-10-24T20:53:38.059Z,20.28
2023-10-24T20:56:06.236Z,20.26
2023-10-24T20:58:34.284Z,20.32
2023-10-24T21:01:02.422Z,20.32
2023-10-24T21:03:30.501Z,20.30
2023-10-24T21:05:59.711Z,20.32
2023-10-24T21:08:27.753Z,20.30
2023-10-24T21:10:57.371Z,20.30
2023-10-24T21:13:25.541Z,20.31
2023-10-24T21:15:57.225Z,20.32
2023-10-24T21:18:25.155Z,20.33
2023-10-24T21:20:53.227Z,20.33
2023-10-24T21:23:21.318Z,20.32
2023-10-24T21:25:49.243Z,20.30
2023-10-24T21:28:20.283Z,20.29
2023-10-24T21:30:48.412Z,20.31
2023-10-24T21:33:16.400Z,20.32
2023-10-24T21:35:44.399Z,20.32
2023-10-24T21:38:12.394Z,20.33
2023-10-24T21:40:40.639Z,20.31
2023-10-24T21:43:08.792Z,20.32
2023-10-24T21:45:38.238Z,20.32
2023-10-24T21:48:06.364Z,20.30
2023-10-24T21:50:34.405Z,20.30
2023-10-24T21:53:02.417Z,20.30
2023-10-24T21:55:30.602Z,20.31
2023-10-24T21:57:59.665Z,20.30
2023-10-24T22:00:33.286Z,20.29
2023-10-24T22:03:03.229Z,20.30
2023-10-24T22:05:31.787Z,20.31
2023-10-24T22:07:59.985Z,20.28
2023-10-24T22:10:28.714Z,20.27
2023-10-24T22:12:56.772Z,20.28
2023-10-24T22:15:24.844Z,20.27
2023-10-24T22:17:54.268Z,20.27
2023-10-24T22:20:23.759Z,20.29
2023-10-24T22:22:52.031Z,20.28
2023-10-24T22:25:20.411Z,20.30
2023-10-24T22:28:04.713Z,20.31
2023-10-24T22:30:34.080Z,20.30
2023-10-24T22:33:02.175Z,20.32
2023-10-24T22:35:31.600Z,20.32
2023-10-24T22:37:59.508Z,20.31
2023-10-24T22:40:27.451Z,20.31
2023-10-24T22:42:55.672Z,20.32
2023-10-24T22:45:23.798Z,20.33
2023-10-24T22:47:51.947Z,20.33
2023-10-24T22:50:21.997Z,20.34
2023-10-24T22:52:51.782Z,20.32
2023-10-24T22:55:19.994Z,20.31
2023-10-24T22:57:48.141Z,20.31
2023-10-24T23:00:16.612Z,20.32
2023-10-24T23:02:45.605Z,20.31
2023-10-24T23:05:14.194Z,20.31
2023-10-24T23:07:42.023Z,20.29
2023-10-24T23:10:11.918Z,20.28
2023-10-24T23:12:39.921Z,20.29
2023-10-24T23:15:08.498Z,20.30
2023-10-24T23:17:36.566Z,20.30
2023-10-24T23:20:04.976Z,20.28
2023-10-24T23:22:33.004Z,20.27
2023-10-24T23:25:01.087Z,20.29
2023-10-24T23:27:30.552Z,20.30
2023-10-24T23:29:58.657Z,20.29
2023-10-24T23:32:26.603Z,20.26
2023-10-24T23:34:54.764Z,20.28
2023-10-24T23:37:22.596Z,20.27
2023-10-24T23:39:51.143Z,20.27
2023-10-24T23:42:19.009Z,20.28
2023-10-24T23:44:48.371Z,20.26
2023-10-24T23:47:16.392Z,20.27
2023-10-24T23:49:44.427Z,20.25
2023-10-24T23:52:12.461Z,20.25
2023-10-24T23:54:40.921Z,20.26
2023-10-24T23:57:08.937Z,20.27
2023-10-24T23:59:37.178Z,20.26
